sensor_id;sensor_type;location;lat;lon;timestamp;P1;durP1;ratioP1;P2;durP2;ratioP2
15820;SDS011;8011;51.650;7.240;2023-01-23T04:01:06;15.43;;;11.40;;
15820;SDS011;8011;51.650;7.240;2023-01-23T04:03:33;15.73;;;11.47;;
15820;SDS011;8011;51.650;7.240;2023-01-23T04:06:00;18.07;;;12.37;;
15820;SDS011;8011;51.650;7.240;2023-01-23T04:08:26;17.23;;;11.67;;
15820;SDS011;8011;51.650;7.240;2023-01-23T04:10:59;17.87;;;12.50;;
15820;SDS011;8011;51.650;7.240;2023-01-23T04:13:27;16.73;;;12.07;;
15820;SDS011;8011;51.650;7.240;2023-01-23T04:18:39;17.43;;;12.10;;
15820;SDS011;8011;51.650;7.240;2023-01-23T04:21:04;17.30;;;11.77;;
15820;SDS011;8011;51.650;7.240;2023-01-23T04:23:30;16.30;;;11.07;;
15820;SDS011;8011;51.650;7.240;2023-01-23T04:25:56;16.70;;;11.20;;
15820;SDS011;8011;51.650;7.240;2023-01-23T04:28:21;18.70;;;11.73;;
15820;SDS011;8011;51.650;7.240;2023-01-23T04:30:48;17.27;;;11.90;;
15820;SDS011;8011;51.650;7.240;2023-01-23T04:33:15;17.13;;;11.43;;
15820;SDS011;8011;51.650;7.240;2023-01-23T04:38:20;17.57;;;11.07;;
15820;SDS011;8011;51.650;7.240;2023-01-23T04:40:46;17.10;;;12.37;;
15820;SDS011;8011;51.650;7.240;2023-01-23T04:43:12;16.70;;;11.80;;
15820;SDS011;8011;51.650;7.240;2023-01-23T04:45:38;16.03;;;11.53;;
15820;SDS011;8011;51.650;7.240;2023-01-23T04:48:03;17.73;;;11.80;;
15820;SDS011;8011;51.650;7.240;2023-01-23T04:50:30;17.20;;;11.77;;
15820;SDS011;8011;51.650;7.240;2023-01-23T04:52:57;16.40;;;11.80;;
15820;SDS011;8011;51.650;7.240;2023-01-23T04:55:22;17.90;;;12.00;;
15820;SDS011;8011;51.650;7.240;2023-01-23T04:57:48;17.43;;;11.83;;
15820;SDS011;8011;51.650;7.240;2023-01-23T05:00:15;17.87;;;12.53;;
15820;SDS011;8011;51.650;7.240;2023-01-23T05:02:41;17.87;;;12.40;;
15820;SDS011;8011;51.650;7.240;2023-01-23T05:05:09;19.37;;;12.57;;
15820;SDS011;8011;51.650;7.240;2023-01-23T05:07:36;17.80;;;12.50;;
15820;SDS011;8011;51.650;7.240;2023-01-23T05:10:02;19.20;;;11.90;;
15820;SDS011;8011;51.650;7.240;2023-01-23T05:12:28;16.53;;;11.87;;
15820;SDS011;8011;51.650;7.240;2023-01-23T05:14:54;16.70;;;12.37;;
15820;SDS011;8011;51.650;7.240;2023-01-23T05:17:20;18.30;;;12.60;;
15820;SDS011;8011;51.650;7.240;2023-01-23T05:19:45;18.80;;;12.73;;
15820;SDS011;8011;51.650;7.240;2023-01-23T05:22:11;15.93;;;11.77;;
15820;SDS011;8011;51.650;7.240;2023-01-23T05:24:37;19.20;;;12.80;;
15820;SDS011;8011;51.650;7.240;2023-01-23T05:27:03;15.60;;;11.33;;
15820;SDS011;8011;51.650;7.240;2023-01-23T05:29:29;18.73;;;12.43;;
15820;SDS011;8011;51.650;7.240;2023-01-23T05:31:54;17.00;;;12.00;;
15820;SDS011;8011;51.650;7.240;2023-01-23T05:34:20;18.87;;;12.30;;
15820;SDS011;8011;51.650;7.240;2023-01-23T05:36:45;16.67;;;11.87;;
15820;SDS011;8011;51.650;7.240;2023-01-23T05:39:11;17.43;;;12.37;;
15820;SDS011;8011;51.650;7.240;2023-01-23T05:41:37;18.67;;;12.60;;
15820;SDS011;8011;51.650;7.240;2023-01-23T05:44:02;16.10;;;10.97;;
15820;SDS011;8011;51.650;7.240;2023-01-23T05:46:28;16.77;;;11.17;;
15820;SDS011;8011;51.650;7.240;2023-01-23T05:48:54;16.23;;;12.00;;
15820;SDS011;8011;51.650;7.240;2023-01-23T05:51:19;18.37;;;12.33;;
15820;SDS011;8011;51.650;7.240;2023-01-23T05:53:47;16.50;;;11.67;;
15820;SDS011;8011;51.650;7.240;2023-01-23T05:56:13;18.27;;;12.70;;
15820;SDS011;8011;51.650;7.240;2023-01-23T05:58:39;17.43;;;12.03;;
15820;SDS011;8011;51.650;7.240;2023-01-23T06:01:04;17.00;;;11.07;;
15820;SDS011;8011;51.650;7.240;2023-01-23T06:03:30;16.47;;;11.33;;
15820;SDS011;8011;51.650;7.240;2023-01-23T06:05:56;19.03;;;11.70;;
15820;SDS011;8011;51.650;7.240;2023-01-23T06:08:22;18.77;;;11.70;;
15820;SDS011;8011;51.650;7.240;2023-01-23T06:10:47;18.37;;;11.73;;
15820;SDS011;8011;51.650;7.240;2023-01-23T06:13:13;17.40;;;11.50;;
15820;SDS011;8011;51.650;7.240;2023-01-23T06:15:39;18.67;;;12.30;;
15820;SDS011;8011;51.650;7.240;2023-01-23T06:18:04;19.43;;;11.97;;
15820;SDS011;8011;51.650;7.240;2023-01-23T06:20:30;18.40;;;12.17;;
15820;SDS011;8011;51.650;7.240;2023-01-23T06:22:55;16.77;;;11.60;;
15820;SDS011;8011;51.650;7.240;2023-01-23T06:25:21;17.23;;;11.17;;
15820;SDS011;8011;51.650;7.240;2023-01-23T06:27:47;14.97;;;10.83;;
15820;SDS011;8011;51.650;7.240;2023-01-23T06:30:13;17.17;;;11.67;;
15820;SDS011;8011;51.650;7.240;2023-01-23T06:32:39;16.63;;;11.93;;
15820;SDS011;8011;51.650;7.240;2023-01-23T06:35:05;16.73;;;11.00;;
15820;SDS011;8011;51.650;7.240;2023-01-23T06:37:31;18.63;;;11.67;;
15820;SDS011;8011;51.650;7.240;2023-01-23T06:39:57;15.73;;;10.53;;
15820;SDS011;8011;51.650;7.240;2023-01-23T06:42:22;18.40;;;11.63;;
15820;SDS011;8011;51.650;7.240;2023-01-23T06:44:48;15.00;;;10.47;;
15820;SDS011;8011;51.650;7.240;2023-01-23T06:47:14;17.80;;;12.13;;
15820;SDS011;8011;51.650;7.240;2023-01-23T06:49:40;16.40;;;11.10;;
15820;SDS011;8011;51.650;7.240;2023-01-23T06:52:05;15.80;;;10.97;;
15820;SDS011;8011;51.650;7.240;2023-01-23T06:54:31;16.03;;;11.63;;
15820;SDS011;8011;51.650;7.240;2023-01-23T06:56:57;15.93;;;11.70;;
15820;SDS011;8011;51.650;7.240;2023-01-23T06:59:22;14.80;;;10.87;;
15820;SDS011;8011;51.650;7.240;2023-01-23T07:01:48;16.07;;;11.07;;
15820;SDS011;8011;51.650;7.240;2023-01-23T07:04:14;16.33;;;10.80;;
15820;SDS011;8011;51.650;7.240;2023-01-23T07:06:39;13.67;;;9.77;;
15820;SDS011;8011;51.650;7.240;2023-01-23T07:09:05;15.00;;;10.73;;
15820;SDS011;8011;51.650;7.240;2023-01-23T07:11:31;15.60;;;10.47;;
15820;SDS011;8011;51.650;7.240;2023-01-23T07:13:57;17.03;;;11.27;;
15820;SDS011;8011;51.650;7.240;2023-01-23T07:16:23;16.77;;;10.73;;
15820;SDS011;8011;51.650;7.240;2023-01-23T07:18:49;15.77;;;10.10;;
15820;SDS011;8011;51.650;7.240;2023-01-23T07:21:15;15.37;;;10.20;;
15820;SDS011;8011;51.650;7.240;2023-01-23T07:23:41;13.97;;;9.77;;
15820;SDS011;8011;51.650;7.240;2023-01-23T07:26:06;15.80;;;10.30;;
15820;SDS011;8011;51.650;7.240;2023-01-23T07:28:34;15.77;;;10.87;;
15820;SDS011;8011;51.650;7.240;2023-01-23T07:31:00;15.60;;;10.33;;
15820;SDS011;8011;51.650;7.240;2023-01-23T07:33:26;15.20;;;10.67;;
15820;SDS011;8011;51.650;7.240;2023-01-23T07:35:52;14.63;;;10.30;;
15820;SDS011;8011;51.650;7.240;2023-01-23T07:38:18;12.67;;;9.63;;
15820;SDS011;8011;51.650;7.240;2023-01-23T07:40:44;16.70;;;10.50;;
15820;SDS011;8011;51.650;7.240;2023-01-23T07:43:10;16.47;;;11.63;;
15820;SDS011;8011;51.650;7.240;2023-01-23T07:45:36;15.93;;;10.73;;
15820;SDS011;8011;51.650;7.240;2023-01-23T07:48:02;16.90;;;10.83;;
15820;SDS011;8011;51.650;7.240;2023-01-23T07:50:28;16.23;;;10.43;;
15820;SDS011;8011;51.650;7.240;2023-01-23T07:52:54;16.63;;;10.20;;
15820;SDS011;8011;51.650;7.240;2023-01-23T07:55:20;15.67;;;10.93;;
15820;SDS011;8011;51.650;7.240;2023-01-23T07:57:45;14.50;;;10.03;;
15820;SDS011;8011;51.650;7.240;2023-01-23T08:00:11;17.43;;;11.37;;
15820;SDS011;8011;51.650;7.240;2023-01-23T08:02:37;15.23;;;9.97;;
15820;SDS011;8011;51.650;7.240;2023-01-23T08:05:03;17.17;;;11.10;;
15820;SDS011;8011;51.650;7.240;2023-01-23T08:07:29;16.10;;;10.77;;
15820;SDS011;8011;51.650;7.240;2023-01-23T08:09:55;16.67;;;11.50;;
15820;SDS011;8011;51.650;7.240;2023-01-23T08:12:20;17.53;;;11.63;;
15820;SDS011;8011;51.650;7.240;2023-01-23T08:14:46;17.47;;;11.63;;
15820;SDS011;8011;51.650;7.240;2023-01-23T08:17:12;17.77;;;11.50;;
15820;SDS011;8011;51.650;7.240;2023-01-23T08:19:38;19.27;;;10.90;;
15820;SDS011;8011;51.650;7.240;2023-01-23T08:22:04;18.03;;;11.07;;
15820;SDS011;8011;51.650;7.240;2023-01-23T08:24:30;18.60;;;11.83;;
15820;SDS011;8011;51.650;7.240;2023-01-23T08:26:56;18.23;;;11.90;;
15820;SDS011;8011;51.650;7.240;2023-01-23T08:29:22;17.80;;;11.20;;
15820;SDS011;8011;51.650;7.240;2023-01-23T08:31:49;16.27;;;11.17;;
15820;SDS011;8011;51.650;7.240;2023-01-23T08:34:18;17.40;;;11.17;;
15820;SDS011;8011;51.650;7.240;2023-01-23T08:36:45;18.57;;;12.30;;
15820;SDS011;8011;51.650;7.240;2023-01-23T08:39:10;18.27;;;11.87;;
15820;SDS011;8011;51.650;7.240;2023-01-23T08:41:40;20.17;;;11.43;;
15820;SDS011;8011;51.650;7.240;2023-01-23T08:44:06;16.60;;;10.90;;
15820;SDS011;8011;51.650;7.240;2023-01-23T08:46:31;16.17;;;11.17;;
15820;SDS011;8011;51.650;7.240;2023-01-23T08:48:57;16.07;;;11.43;;
15820;SDS011;8011;51.650;7.240;2023-01-23T08:51:23;19.30;;;12.03;;
15820;SDS011;8011;51.650;7.240;2023-01-23T08:53:51;18.27;;;12.13;;
15820;SDS011;8011;51.650;7.240;2023-01-23T08:56:17;15.70;;;11.47;;
15820;SDS011;8011;51.650;7.240;2023-01-23T08:58:45;17.40;;;11.73;;
15820;SDS011;8011;51.650;7.240;2023-01-23T09:01:15;18.13;;;12.13;;
15820;SDS011;8011;51.650;7.240;2023-01-23T09:03:46;18.70;;;12.37;;
15820;SDS011;8011;51.650;7.240;2023-01-23T09:06:13;16.97;;;11.63;;
15820;SDS011;8011;51.650;7.240;2023-01-23T09:08:42;16.47;;;11.70;;
15820;SDS011;8011;51.650;7.240;2023-01-23T09:11:09;16.77;;;11.87;;
15820;SDS011;8011;51.650;7.240;2023-01-23T09:13:36;17.47;;;11.07;;
15820;SDS011;8011;51.650;7.240;2023-01-23T09:16:02;17.30;;;12.40;;
15820;SDS011;8011;51.650;7.240;2023-01-23T09:18:29;16.03;;;10.70;;
15820;SDS011;8011;51.650;7.240;2023-01-23T09:20:55;16.60;;;12.23;;
15820;SDS011;8011;51.650;7.240;2023-01-23T09:23:22;17.83;;;11.37;;
15820;SDS011;8011;51.650;7.240;2023-01-23T09:25:48;15.07;;;10.67;;
15820;SDS011;8011;51.650;7.240;2023-01-23T09:28:14;15.03;;;10.80;;
15820;SDS011;8011;51.650;7.240;2023-01-23T09:30:41;16.67;;;11.50;;
15820;SDS011;8011;51.650;7.240;2023-01-23T09:33:08;14.87;;;10.33;;
15820;SDS011;8011;51.650;7.240;2023-01-23T09:35:34;12.70;;;9.87;;
15820;SDS011;8011;51.650;7.240;2023-01-23T09:38:02;14.10;;;9.90;;
15820;SDS011;8011;51.650;7.240;2023-01-23T09:40:37;12.90;;;9.40;;
15820;SDS011;8011;51.650;7.240;2023-01-23T09:45:42;14.13;;;10.07;;
15820;SDS011;8011;51.650;7.240;2023-01-23T09:53:49;10.70;;;8.73;;
15820;SDS011;8011;51.650;7.240;2023-01-23T09:56:32;13.83;;;9.23;;
15820;SDS011;8011;51.650;7.240;2023-01-23T09:59:23;12.50;;;8.93;;
15820;SDS011;8011;51.650;7.240;2023-01-23T10:02:01;11.47;;;8.17;;
15820;SDS011;8011;51.650;7.240;2023-01-23T10:04:35;11.13;;;8.40;;
15820;SDS011;8011;51.650;7.240;2023-01-23T10:07:24;12.03;;;8.70;;
15820;SDS011;8011;51.650;7.240;2023-01-23T10:10:38;10.43;;;8.40;;
15820;SDS011;8011;51.650;7.240;2023-01-23T10:26:13;12.13;;;7.77;;
15820;SDS011;8011;51.650;7.240;2023-01-23T10:28:43;10.83;;;8.40;;
15820;SDS011;8011;51.650;7.240;2023-01-23T10:31:14;8.93;;;7.77;;
15820;SDS011;8011;51.650;7.240;2023-01-23T10:33:46;10.23;;;8.30;;
15820;SDS011;8011;51.650;7.240;2023-01-23T10:36:19;11.93;;;8.37;;
15820;SDS011;8011;51.650;7.240;2023-01-23T10:38:58;9.73;;;7.77;;
15820;SDS011;8011;51.650;7.240;2023-01-23T10:41:30;9.90;;;7.83;;
15820;SDS011;8011;51.650;7.240;2023-01-23T10:43:58;10.43;;;8.03;;
15820;SDS011;8011;51.650;7.240;2023-01-23T10:46:32;10.87;;;8.13;;
15820;SDS011;8011;51.650;7.240;2023-01-23T10:49:02;10.10;;;7.90;;
15820;SDS011;8011;51.650;7.240;2023-01-23T10:56:33;11.27;;;7.77;;
15820;SDS011;8011;51.650;7.240;2023-01-23T10:59:03;10.40;;;7.90;;
15820;SDS011;8011;51.650;7.240;2023-01-23T11:01:32;9.10;;;7.27;;
15820;SDS011;8011;51.650;7.240;2023-01-23T11:04:18;10.70;;;7.80;;
15820;SDS011;8011;51.650;7.240;2023-01-23T11:12:25;9.83;;;7.47;;
15820;SDS011;8011;51.650;7.240;2023-01-23T11:15:09;10.17;;;8.20;;
15820;SDS011;8011;51.650;7.240;2023-01-23T11:17:49;11.60;;;8.30;;
15820;SDS011;8011;51.650;7.240;2023-01-23T11:20:26;10.77;;;8.90;;
15820;SDS011;8011;51.650;7.240;2023-01-23T11:23:01;10.90;;;8.33;;
15820;SDS011;8011;51.650;7.240;2023-01-23T11:25:32;12.30;;;8.27;;
15820;SDS011;8011;51.650;7.240;2023-01-23T11:28:28;11.50;;;8.13;;
15820;SDS011;8011;51.650;7.240;2023-01-23T11:31:17;10.83;;;8.20;;
15820;SDS011;8011;51.650;7.240;2023-01-23T11:38:47;13.10;;;8.80;;
15820;SDS011;8011;51.650;7.240;2023-01-23T11:41:16;11.27;;;9.20;;
15820;SDS011;8011;51.650;7.240;2023-01-23T11:43:42;11.57;;;9.00;;
15820;SDS011;8011;51.650;7.240;2023-01-23T11:46:18;11.63;;;8.80;;
15820;SDS011;8011;51.650;7.240;2023-01-23T11:54:51;11.53;;;8.60;;
15820;SDS011;8011;51.650;7.240;2023-01-23T12:08:23;11.03;;;8.63;;
15820;SDS011;8011;51.650;7.240;2023-01-23T12:11:12;12.43;;;9.43;;
15820;SDS011;8011;51.650;7.240;2023-01-23T12:27:44;13.93;;;10.50;;
15820;SDS011;8011;51.650;7.240;2023-01-23T12:30:22;14.23;;;10.47;;
15820;SDS011;8011;51.650;7.240;2023-01-23T12:41:08;14.47;;;10.07;;
15820;SDS011;8011;51.650;7.240;2023-01-23T12:43:46;14.30;;;10.63;;
15820;SDS011;8011;51.650;7.240;2023-01-23T12:46:23;15.40;;;11.03;;
15820;SDS011;8011;51.650;7.240;2023-01-23T12:49:13;12.67;;;10.27;;
15820;SDS011;8011;51.650;7.240;2023-01-23T12:52:14;14.07;;;10.60;;
15820;SDS011;8011;51.650;7.240;2023-01-23T12:57:40;14.60;;;11.23;;
15820;SDS011;8011;51.650;7.240;2023-01-23T13:06:00;15.17;;;11.53;;
15820;SDS011;8011;51.650;7.240;2023-01-23T13:08:54;14.20;;;10.90;;
15820;SDS011;8011;51.650;7.240;2023-01-23T13:11:45;14.80;;;11.10;;
15820;SDS011;8011;51.650;7.240;2023-01-23T13:16:54;14.77;;;11.47;;
15820;SDS011;8011;51.650;7.240;2023-01-23T13:19:27;15.77;;;11.00;;
15820;SDS011;8011;51.650;7.240;2023-01-23T13:22:16;14.67;;;10.87;;
15820;SDS011;8011;51.650;7.240;2023-01-23T13:25:10;14.30;;;10.27;;
15820;SDS011;8011;51.650;7.240;2023-01-23T13:27:50;16.60;;;11.77;;
15820;SDS011;8011;51.650;7.240;2023-01-23T13:33:14;15.43;;;11.27;;
15820;SDS011;8011;51.650;7.240;2023-01-23T13:35:54;14.10;;;10.60;;
15820;SDS011;8011;51.650;7.240;2023-01-23T13:49:02;16.57;;;12.00;;
15820;SDS011;8011;51.650;7.240;2023-01-23T13:51:48;14.63;;;11.53;;
15820;SDS011;8011;51.650;7.240;2023-01-23T13:54:15;16.63;;;11.73;;
15820;SDS011;8011;51.650;7.240;2023-01-23T13:57:07;16.17;;;11.37;;
15820;SDS011;8011;51.650;7.240;2023-01-23T13:59:43;14.57;;;11.33;;
15820;SDS011;8011;51.650;7.240;2023-01-23T14:05:21;17.53;;;11.77;;
15820;SDS011;8011;51.650;7.240;2023-01-23T14:07:58;15.33;;;11.93;;
15820;SDS011;8011;51.650;7.240;2023-01-23T14:10:30;14.60;;;11.67;;
15820;SDS011;8011;51.650;7.240;2023-01-23T14:13:08;16.30;;;11.67;;
15820;SDS011;8011;51.650;7.240;2023-01-23T14:15:39;17.23;;;11.50;;
15820;SDS011;8011;51.650;7.240;2023-01-23T14:21:06;19.07;;;12.07;;
15820;SDS011;8011;51.650;7.240;2023-01-23T14:23:40;15.47;;;11.30;;
15820;SDS011;8011;51.650;7.240;2023-01-23T14:26:08;14.97;;;11.23;;
15820;SDS011;8011;51.650;7.240;2023-01-23T14:28:37;15.30;;;11.63;;
15820;SDS011;8011;51.650;7.240;2023-01-23T14:31:04;14.60;;;11.37;;
15820;SDS011;8011;51.650;7.240;2023-01-23T14:33:40;15.87;;;11.63;;
15820;SDS011;8011;51.650;7.240;2023-01-23T14:36:11;14.17;;;10.47;;
15820;SDS011;8011;51.650;7.240;2023-01-23T14:38:40;19.00;;;11.67;;
15820;SDS011;8011;51.650;7.240;2023-01-23T14:41:08;16.27;;;10.90;;
15820;SDS011;8011;51.650;7.240;2023-01-23T14:43:34;14.27;;;10.57;;
15820;SDS011;8011;51.650;7.240;2023-01-23T14:46:03;15.57;;;10.73;;
15820;SDS011;8011;51.650;7.240;2023-01-23T14:48:51;16.37;;;11.50;;
15820;SDS011;8011;51.650;7.240;2023-01-23T14:53:52;15.47;;;10.93;;
15820;SDS011;8011;51.650;7.240;2023-01-23T14:56:24;15.37;;;11.53;;
15820;SDS011;8011;51.650;7.240;2023-01-23T14:58:56;16.07;;;11.20;;
15820;SDS011;8011;51.650;7.240;2023-01-23T15:01:24;16.40;;;11.67;;
15820;SDS011;8011;51.650;7.240;2023-01-23T15:04:33;17.57;;;12.47;;
15820;SDS011;8011;51.650;7.240;2023-01-23T15:06:51;15.20;;;11.53;;
15820;SDS011;8011;51.650;7.240;2023-01-23T15:09:21;16.70;;;11.77;;
15820;SDS011;8011;51.650;7.240;2023-01-23T15:12:06;14.77;;;10.27;;
15820;SDS011;8011;51.650;7.240;2023-01-23T15:14:42;16.30;;;11.60;;
15820;SDS011;8011;51.650;7.240;2023-01-23T15:17:26;17.17;;;12.37;;
15820;SDS011;8011;51.650;7.240;2023-01-23T15:19:52;15.13;;;11.17;;
15820;SDS011;8011;51.650;7.240;2023-01-23T15:22:27;17.10;;;11.43;;
15820;SDS011;8011;51.650;7.240;2023-01-23T15:24:54;17.67;;;12.33;;
15820;SDS011;8011;51.650;7.240;2023-01-23T15:32:53;20.23;;;12.07;;
15820;SDS011;8011;51.650;7.240;2023-01-23T15:35:24;16.37;;;11.70;;
15820;SDS011;8011;51.650;7.240;2023-01-23T15:37:50;20.57;;;11.63;;
15820;SDS011;8011;51.650;7.240;2023-01-23T15:40:24;16.47;;;11.83;;
15820;SDS011;8011;51.650;7.240;2023-01-23T15:43:25;15.67;;;12.13;;
15820;SDS011;8011;51.650;7.240;2023-01-23T15:45:44;17.40;;;11.90;;
15820;SDS011;8011;51.650;7.240;2023-01-23T15:48:10;17.80;;;11.67;;
15820;SDS011;8011;51.650;7.240;2023-01-23T15:50:35;15.60;;;11.50;;
15820;SDS011;8011;51.650;7.240;2023-01-23T15:53:01;19.37;;;12.33;;
15820;SDS011;8011;51.650;7.240;2023-01-23T15:55:27;17.83;;;11.83;;
15820;SDS011;8011;51.650;7.240;2023-01-23T15:57:54;16.10;;;11.50;;
15820;SDS011;8011;51.650;7.240;2023-01-23T16:00:22;20.07;;;13.80;;
15820;SDS011;8011;51.650;7.240;2023-01-23T16:02:49;19.07;;;12.50;;
15820;SDS011;8011;51.650;7.240;2023-01-23T16:05:19;19.50;;;12.53;;
15820;SDS011;8011;51.650;7.240;2023-01-23T16:07:45;20.97;;;12.37;;
15820;SDS011;8011;51.650;7.240;2023-01-23T16:10:25;18.20;;;12.43;;
15820;SDS011;8011;51.650;7.240;2023-01-23T16:12:54;17.20;;;12.20;;
15820;SDS011;8011;51.650;7.240;2023-01-23T16:15:28;17.47;;;12.03;;
15820;SDS011;8011;51.650;7.240;2023-01-23T16:17:59;19.17;;;12.57;;
15820;SDS011;8011;51.650;7.240;2023-01-23T16:20:26;17.83;;;13.03;;
15820;SDS011;8011;51.650;7.240;2023-01-23T16:22:55;18.77;;;12.53;;
15820;SDS011;8011;51.650;7.240;2023-01-23T16:25:30;18.57;;;13.20;;
15820;SDS011;8011;51.650;7.240;2023-01-23T16:27:58;19.40;;;12.40;;
15820;SDS011;8011;51.650;7.240;2023-01-23T16:30:24;20.20;;;12.93;;
15820;SDS011;8011;51.650;7.240;2023-01-23T16:32:52;16.50;;;12.07;;
15820;SDS011;8011;51.650;7.240;2023-01-23T16:35:19;17.10;;;11.90;;
15820;SDS011;8011;51.650;7.240;2023-01-23T16:37:47;16.57;;;11.67;;
15820;SDS011;8011;51.650;7.240;2023-01-23T16:40:21;16.43;;;11.90;;
15820;SDS011;8011;51.650;7.240;2023-01-23T16:42:49;18.87;;;12.30;;
15820;SDS011;8011;51.650;7.240;2023-01-23T16:45:21;18.90;;;12.43;;
15820;SDS011;8011;51.650;7.240;2023-01-23T16:47:54;16.73;;;12.60;;
15820;SDS011;8011;51.650;7.240;2023-01-23T16:50:31;17.23;;;12.57;;
15820;SDS011;8011;51.650;7.240;2023-01-23T16:53:23;16.57;;;11.27;;
15820;SDS011;8011;51.650;7.240;2023-01-23T16:56:22;18.30;;;11.67;;
15820;SDS011;8011;51.650;7.240;2023-01-23T16:58:53;18.93;;;11.67;;
15820;SDS011;8011;51.650;7.240;2023-01-23T17:01:20;17.97;;;12.30;;
15820;SDS011;8011;51.650;7.240;2023-01-23T17:03:53;17.27;;;11.40;;
15820;SDS011;8011;51.650;7.240;2023-01-23T17:06:21;14.43;;;11.27;;
15820;SDS011;8011;51.650;7.240;2023-01-23T17:08:47;17.10;;;11.17;;
15820;SDS011;8011;51.650;7.240;2023-01-23T17:11:35;15.20;;;10.93;;
15820;SDS011;8011;51.650;7.240;2023-01-23T17:14:03;13.50;;;9.87;;
15820;SDS011;8011;51.650;7.240;2023-01-23T17:16:38;14.97;;;10.77;;
15820;SDS011;8011;51.650;7.240;2023-01-23T17:19:07;15.47;;;11.20;;
15820;SDS011;8011;51.650;7.240;2023-01-23T17:21:40;15.90;;;10.40;;
15820;SDS011;8011;51.650;7.240;2023-01-23T17:24:09;15.67;;;10.67;;
15820;SDS011;8011;51.650;7.240;2023-01-23T17:26:41;14.17;;;10.27;;
15820;SDS011;8011;51.650;7.240;2023-01-23T17:29:08;15.10;;;9.70;;
15820;SDS011;8011;51.650;7.240;2023-01-23T17:31:34;15.93;;;11.00;;
15820;SDS011;8011;51.650;7.240;2023-01-23T17:34:01;14.13;;;10.17;;
15820;SDS011;8011;51.650;7.240;2023-01-23T17:36:28;14.67;;;10.63;;
15820;SDS011;8011;51.650;7.240;2023-01-23T17:38:55;12.73;;;10.03;;
15820;SDS011;8011;51.650;7.240;2023-01-23T17:41:22;16.30;;;10.83;;
15820;SDS011;8011;51.650;7.240;2023-01-23T17:43:48;12.67;;;9.87;;
15820;SDS011;8011;51.650;7.240;2023-01-23T17:46:20;16.57;;;10.60;;
15820;SDS011;8011;51.650;7.240;2023-01-23T17:48:50;15.37;;;10.40;;
15820;SDS011;8011;51.650;7.240;2023-01-23T17:51:16;12.47;;;9.63;;
15820;SDS011;8011;51.650;7.240;2023-01-23T17:53:43;14.50;;;10.27;;
15820;SDS011;8011;51.650;7.240;2023-01-23T17:56:12;13.30;;;10.67;;
15820;SDS011;8011;51.650;7.240;2023-01-23T17:58:39;12.70;;;9.73;;
15820;SDS011;8011;51.650;7.240;2023-01-23T18:01:09;13.63;;;10.30;;
15820;SDS011;8011;51.650;7.240;2023-01-23T18:03:49;14.90;;;10.47;;
15820;SDS011;8011;51.650;7.240;2023-01-23T18:06:16;16.07;;;10.63;;
15820;SDS011;8011;51.650;7.240;2023-01-23T18:08:43;16.10;;;11.53;;
15820;SDS011;8011;51.650;7.240;2023-01-23T18:11:19;16.67;;;11.30;;
15820;SDS011;8011;51.650;7.240;2023-01-23T18:16:44;16.37;;;11.30;;
15820;SDS011;8011;51.650;7.240;2023-01-23T18:21:37;14.30;;;10.00;;
15820;SDS011;8011;51.650;7.240;2023-01-23T18:24:03;13.13;;;9.57;;
15820;SDS011;8011;51.650;7.240;2023-01-23T18:45:46;15.43;;;10.10;;
15820;SDS011;8011;51.650;7.240;2023-01-23T18:48:12;15.00;;;11.13;;
15820;SDS011;8011;51.650;7.240;2023-01-23T18:50:40;14.73;;;10.27;;
15820;SDS011;8011;51.650;7.240;2023-01-23T18:53:17;16.33;;;9.77;;
15820;SDS011;8011;51.650;7.240;2023-01-23T18:56:21;13.30;;;9.73;;
15820;SDS011;8011;51.650;7.240;2023-01-23T19:01:51;12.93;;;9.93;;
15820;SDS011;8011;51.650;7.240;2023-01-23T19:04:36;14.63;;;10.17;;
15820;SDS011;8011;51.650;7.240;2023-01-23T19:07:16;15.20;;;10.83;;
15820;SDS011;8011;51.650;7.240;2023-01-23T19:09:44;14.63;;;10.60;;
15820;SDS011;8011;51.650;7.240;2023-01-23T19:12:17;17.27;;;11.13;;
15820;SDS011;8011;51.650;7.240;2023-01-23T19:17:38;16.70;;;11.23;;
15820;SDS011;8011;51.650;7.240;2023-01-23T19:20:20;14.97;;;11.00;;
15820;SDS011;8011;51.650;7.240;2023-01-23T19:25:42;16.63;;;10.60;;
15820;SDS011;8011;51.650;7.240;2023-01-23T19:28:11;16.77;;;11.37;;
15820;SDS011;8011;51.650;7.240;2023-01-23T19:30:38;18.17;;;11.90;;
15820;SDS011;8011;51.650;7.240;2023-01-23T19:33:04;18.13;;;12.83;;
15820;SDS011;8011;51.650;7.240;2023-01-23T19:35:30;16.17;;;11.63;;
15820;SDS011;8011;51.650;7.240;2023-01-23T19:37:56;18.33;;;12.30;;
15820;SDS011;8011;51.650;7.240;2023-01-23T19:40:22;16.23;;;12.20;;
15820;SDS011;8011;51.650;7.240;2023-01-23T19:42:47;16.47;;;11.23;;
15820;SDS011;8011;51.650;7.240;2023-01-23T19:45:14;15.70;;;11.37;;
15820;SDS011;8011;51.650;7.240;2023-01-23T19:47:41;17.23;;;12.07;;
15820;SDS011;8011;51.650;7.240;2023-01-23T19:50:14;18.23;;;12.27;;
15820;SDS011;8011;51.650;7.240;2023-01-23T19:52:45;19.87;;;12.17;;
15820;SDS011;8011;51.650;7.240;2023-01-23T19:55:23;17.47;;;11.77;;
15820;SDS011;8011;51.650;7.240;2023-01-23T19:57:56;16.67;;;12.57;;
15820;SDS011;8011;51.650;7.240;2023-01-23T20:00:23;15.50;;;11.27;;
15820;SDS011;8011;51.650;7.240;2023-01-23T20:02:51;17.37;;;11.80;;
15820;SDS011;8011;51.650;7.240;2023-01-23T20:05:17;18.13;;;11.30;;
15820;SDS011;8011;51.650;7.240;2023-01-23T20:07:43;18.63;;;12.67;;
15820;SDS011;8011;51.650;7.240;2023-01-23T20:10:09;17.30;;;11.93;;
15820;SDS011;8011;51.650;7.240;2023-01-23T20:12:39;18.27;;;12.17;;
15820;SDS011;8011;51.650;7.240;2023-01-23T20:15:12;18.00;;;11.87;;
15820;SDS011;8011;51.650;7.240;2023-01-23T20:17:39;19.03;;;12.00;;
15820;SDS011;8011;51.650;7.240;2023-01-23T20:20:06;20.07;;;14.40;;
15820;SDS011;8011;51.650;7.240;2023-01-23T20:22:38;18.27;;;12.70;;
15820;SDS011;8011;51.650;7.240;2023-01-23T20:25:06;21.63;;;13.40;;
15820;SDS011;8011;51.650;7.240;2023-01-23T20:27:33;16.90;;;12.23;;
15820;SDS011;8011;51.650;7.240;2023-01-23T20:30:00;20.13;;;12.83;;
15820;SDS011;8011;51.650;7.240;2023-01-23T20:32:29;16.27;;;11.17;;
15820;SDS011;8011;51.650;7.240;2023-01-23T20:34:56;19.43;;;12.87;;
15820;SDS011;8011;51.650;7.240;2023-01-23T20:37:22;17.33;;;11.63;;
15820;SDS011;8011;51.650;7.240;2023-01-23T20:39:48;17.23;;;12.20;;
15820;SDS011;8011;51.650;7.240;2023-01-23T20:42:14;18.83;;;12.17;;
15820;SDS011;8011;51.650;7.240;2023-01-23T20:44:39;18.57;;;12.13;;
15820;SDS011;8011;51.650;7.240;2023-01-23T20:47:05;18.43;;;12.53;;
15820;SDS011;8011;51.650;7.240;2023-01-23T20:49:31;19.53;;;12.53;;
15820;SDS011;8011;51.650;7.240;2023-01-23T20:51:56;19.07;;;12.63;;
15820;SDS011;8011;51.650;7.240;2023-01-23T20:54:42;16.17;;;11.37;;
15820;SDS011;8011;51.650;7.240;2023-01-23T20:57:08;15.80;;;11.73;;
15820;SDS011;8011;51.650;7.240;2023-01-23T20:59:35;16.87;;;11.70;;
15820;SDS011;8011;51.650;7.240;2023-01-23T21:02:01;16.73;;;12.40;;
15820;SDS011;8011;51.650;7.240;2023-01-23T21:04:45;19.63;;;12.73;;
15820;SDS011;8011;51.650;7.240;2023-01-23T21:07:11;19.73;;;12.00;;
15820;SDS011;8011;51.650;7.240;2023-01-23T21:09:36;17.03;;;12.00;;
15820;SDS011;8011;51.650;7.240;2023-01-23T21:12:02;16.83;;;11.50;;
15820;SDS011;8011;51.650;7.240;2023-01-23T21:14:28;14.97;;;11.30;;
15820;SDS011;8011;51.650;7.240;2023-01-23T21:16:56;19.43;;;11.60;;
15820;SDS011;8011;51.650;7.240;2023-01-23T21:19:22;16.03;;;11.33;;
15820;SDS011;8011;51.650;7.240;2023-01-23T21:21:48;15.67;;;10.80;;
15820;SDS011;8011;51.650;7.240;2023-01-23T21:24:14;15.43;;;11.33;;
15820;SDS011;8011;51.650;7.240;2023-01-23T21:26:40;15.57;;;10.77;;